Time;durP1;ratioP1;P1;durP2;ratioP2;P2;SDS_P1;SDS_P2;PMS_P1;PMS_P2;Temp;Humidity;BMP_temperature;BMP_pressure;BME280_temperature;BME280_humidity;BME280_pressure;Samples;Min_cycle;Max_cycle;Signal;HPM_P1;HPM_P2
2023/04/20 00:00:22;;;;;;;1999.90;999.90;;;5.60;99.90;;;;;;5051705;28;20033;-75
2023/04/20 00:02:47;;;;;;;1999.90;999.90;;;5.60;99.90;;;;;;5055157;28;20044;-75
2023/04/20 00:05:13;;;;;;;1999.90;999.90;;;5.60;99.90;;;;;;5072502;28;20032;-75
2023/04/20 00:07:40;;;;;;;1999.90;999.90;;;5.60;99.90;;;;;;5043071;28;20067;-75
2023/04/20 00:10:07;;;;;;;1999.90;999.90;;;5.60;99.90;;;;;;5075863;28;20021;-74
2023/04/20 00:12:32;;;;;;;1999.90;999.90;;;5.60;99.90;;;;;;5076430;28;20024;-74
2023/04/20 00:14:58;;;;;;;1999.90;999.90;;;5.60;99.90;;;;;;5055972;28;20560;-74
2023/04/20 00:17:24;;;;;;;1999.90;999.90;;;5.50;99.90;;;;;;5074011;28;20058;-74
2023/04/20 00:19:49;;;;;;;1999.90;999.90;;;5.50;99.90;;;;;;5077540;28;20028;-75
2023/04/20 00:22:15;;;;;;;1999.90;999.90;;;5.40;99.90;;;;;;5057461;28;20555;-75
2023/04/20 00:24:41;;;;;;;1999.90;999.90;;;5.50;99.90;;;;;;5056450;28;20036;-74
2023/04/20 00:27:06;;;;;;;1999.90;999.90;;;5.50;99.90;;;;;;5075874;28;20036;-74
2023/04/20 00:29:32;;;;;;;1999.90;999.90;;;5.50;99.90;;;;;;5051508;28;20024;-75
2023/04/20 00:31:58;;;;;;;1999.90;999.90;;;5.50;99.90;;;;;;5062929;28;20048;-75
2023/04/20 00:34:26;;;;;;;1999.90;999.90;;;5.50;99.90;;;;;;5058613;28;20111;-75
2023/04/20 00:36:52;;;;;;;1999.90;999.90;;;5.50;99.90;;;;;;5072447;28;20024;-75
2023/04/20 00:39:17;;;;;;;1999.90;999.90;;;5.50;99.90;;;;;;5071135;28;20035;-75
2023/04/20 00:41:43;;;;;;;1999.90;999.90;;;5.50;99.90;;;;;;5053152;28;20082;-75
2023/04/20 00:44:12;;;;;;;1999.90;999.90;;;5.50;99.90;;;;;;5049130;28;20032;-75
2023/04/20 00:46:38;;;;;;;1999.90;999.90;;;5.50;99.90;;;;;;5073648;28;20036;-75
2023/04/20 00:49:05;;;;;;;1999.90;999.90;;;5.30;99.90;;;;;;5051868;28;20128;-75
2023/04/20 00:51:31;;;;;;;1999.90;999.90;;;5.30;99.90;;;;;;5069423;28;20047;-75
2023/04/20 00:53:57;;;;;;;1999.90;999.90;;;5.40;99.90;;;;;;5056825;28;20032;-74
2023/04/20 00:56:23;;;;;;;1999.90;999.90;;;5.50;99.90;;;;;;5071421;28;20029;-74
2023/04/20 00:58:49;;;;;;;1999.90;999.90;;;5.50;99.90;;;;;;5054578;28;20046;-75
2023/04/20 01:01:16;;;;;;;1999.90;999.90;;;5.50;99.90;;;;;;5071048;28;20033;-74
2023/04/20 01:03:43;;;;;;;1999.90;999.90;;;5.50;99.90;;;;;;5069001;28;20041;-75
2023/04/20 01:06:09;;;;;;;1999.90;999.90;;;5.50;99.90;;;;;;5070534;28;20043;-75
2023/04/20 01:08:43;;;;;;;1999.90;999.90;;;5.50;99.90;;;;;;5073217;28;20486;-76
2023/04/20 01:11:09;;;;;;;1999.90;999.90;;;5.50;99.90;;;;;;5071728;28;20021;-76
2023/04/20 01:13:37;;;;;;;1999.90;999.90;;;5.50;99.90;;;;;;5069625;28;20074;-75
2023/04/20 01:16:02;;;;;;;1999.90;999.90;;;5.60;99.90;;;;;;5068965;28;20038;-76
2023/04/20 01:18:28;;;;;;;1999.90;999.90;;;5.50;99.90;;;;;;5074922;28;20394;-75
2023/04/20 01:20:54;;;;;;;1999.90;999.90;;;5.60;99.90;;;;;;5073922;28;20036;-75
2023/04/20 01:23:19;;;;;;;1999.90;999.90;;;5.50;99.90;;;;;;5056835;28;20058;-75
2023/04/20 01:25:45;;;;;;;1999.90;999.90;;;5.60;99.90;;;;;;5058963;28;20486;-75
2023/04/20 01:28:13;;;;;;;1999.90;999.90;;;5.60;99.90;;;;;;5055576;28;20043;-75
2023/04/20 01:30:38;;;;;;;1999.90;999.90;;;5.60;99.90;;;;;;5070156;28;20028;-76
2023/04/20 01:33:04;;;;;;;1999.90;999.90;;;5.50;99.90;;;;;;5076103;28;20101;-75
2023/04/20 01:35:30;;;;;;;1999.90;999.90;;;5.40;99.90;;;;;;5069392;28;20067;-75
2023/04/20 01:37:55;;;;;;;1999.90;999.90;;;5.30;99.90;;;;;;5075363;28;20042;-75
2023/04/20 01:40:21;;;;;;;1999.90;999.90;;;5.40;99.90;;;;;;5054706;28;20035;-75
2023/04/20 01:42:47;;;;;;;1999.90;999.90;;;5.50;99.90;;;;;;5072070;28;20029;-75
2023/04/20 01:45:12;;;;;;;1999.90;999.90;;;5.60;99.90;;;;;;5068792;28;20032;-76
2023/04/20 01:47:38;;;;;;;1999.90;999.90;;;5.50;99.90;;;;;;5076606;28;20059;-76
2023/04/20 01:50:04;;;;;;;1999.90;999.90;;;5.50;99.90;;;;;;5049956;28;20676;-75
2023/04/20 01:52:30;;;;;;;1999.90;999.90;;;5.50;99.90;;;;;;5074476;28;20441;-75
2023/04/20 01:54:56;;;;;;;1999.90;999.90;;;5.50;99.90;;;;;;5067486;28;20033;-75
2023/04/20 01:57:21;;;;;;;1999.90;999.90;;;5.50;99.90;;;;;;5047257;28;20572;-75
2023/04/20 01:59:47;;;;;;;1999.90;999.90;;;5.40;99.90;;;;;;5053489;28;20033;-75
2023/04/20 02:02:13;;;;;;;1999.90;999.90;;;5.50;99.90;;;;;;5070274;28;20035;-75
2023/04/20 02:04:39;;;;;;;1999.90;999.90;;;5.50;99.90;;;;;;5069060;28;20037;-75
2023/04/20 02:07:04;;;;;;;1999.90;999.90;;;5.50;99.90;;;;;;5052957;28;20093;-75
2023/04/20 02:09:30;;;;;;;1999.90;999.90;;;5.50;99.90;;;;;;5051084;28;20043;-75
2023/04/20 02:11:56;;;;;;;1999.90;999.90;;;5.50;99.90;;;;;;5054421;28;20083;-75
2023/04/20 02:14:21;;;;;;;1999.90;999.90;;;5.30;99.90;;;;;;5070431;28;20524;-75
2023/04/20 02:16:47;;;;;;;1999.90;999.90;;;5.30;99.90;;;;;;5055146;28;20029;-74
2023/04/20 02:19:12;;;;;;;1999.90;999.90;;;5.30;99.90;;;;;;5051386;28;20146;-76
2023/04/20 02:21:38;;;;;;;1999.90;999.90;;;5.40;99.90;;;;;;5071554;28;20036;-76
2023/04/20 02:24:05;;;;;;;1999.90;999.90;;;5.50;99.90;;;;;;5062068;28;20064;-76
2023/04/20 02:26:30;;;;;;;1999.90;999.90;;;5.50;99.90;;;;;;5070374;28;20070;-76
2023/04/20 02:28:56;;;;;;;1999.90;999.90;;;5.50;99.90;;;;;;5054822;28;20536;-75
2023/04/20 02:31:22;;;;;;;1999.90;999.90;;;5.50;99.90;;;;;;5071000;28;20081;-75
2023/04/20 02:33:48;;;;;;;1999.90;999.90;;;5.50;99.90;;;;;;5054200;28;20059;-75
2023/04/20 02:36:14;;;;;;;1999.90;999.90;;;5.60;99.90;;;;;;5068922;28;20367;-74
2023/04/20 02:38:40;;;;;;;1999.90;999.90;;;5.50;99.90;;;;;;5052007;28;20058;-74
2023/04/20 02:41:05;;;;;;;1999.90;999.90;;;5.60;99.90;;;;;;5054879;28;20032;-75
2023/04/20 02:43:33;;;;;;;1999.90;999.90;;;5.70;99.90;;;;;;5048271;28;20763;-75
2023/04/20 02:45:58;;;;;;;1999.90;999.90;;;5.60;99.90;;;;;;5042290;28;20149;-75
2023/04/20 02:48:24;;;;;;;1999.90;999.90;;;5.60;99.90;;;;;;5065433;28;20494;-75
2023/04/20 02:50:50;;;;;;;1999.90;999.90;;;5.70;99.90;;;;;;5075881;28;20039;-75
2023/04/20 02:53:15;;;;;;;1999.90;999.90;;;5.50;99.90;;;;;;5066148;28;20032;-75
2023/04/20 02:55:41;;;;;;;1999.90;999.90;;;5.50;99.90;;;;;;5054517;28;20056;-75
2023/04/20 02:58:06;;;;;;;1999.90;999.90;;;5.50;99.90;;;;;;5071117;28;20056;-74
2023/04/20 03:00:32;;;;;;;1999.90;999.90;;;5.50;99.90;;;;;;5067078;28;20116;-74
2023/04/20 03:02:58;;;;;;;1999.90;999.90;;;5.60;99.90;;;;;;5052618;28;20455;-75
2023/04/20 03:05:23;;;;;;;1999.90;999.90;;;5.50;99.90;;;;;;5050764;28;20035;-75
2023/04/20 03:07:49;;;;;;;1999.90;999.90;;;5.50;99.90;;;;;;5070598;28;20024;-76
2023/04/20 03:10:15;;;;;;;1999.90;999.90;;;5.50;99.90;;;;;;5066784;28;20186;-75
2023/04/20 03:12:40;;;;;;;1999.90;999.90;;;5.50;99.90;;;;;;5051662;28;20120;-75
2023/04/20 03:15:07;;;;;;;1999.90;999.90;;;5.50;99.90;;;;;;5075088;28;20153;-75
2023/04/20 03:17:33;;;;;;;1999.90;999.90;;;5.50;99.90;;;;;;5071203;28;20106;-74
2023/04/20 03:19:58;;;;;;;1999.90;999.90;;;5.50;99.90;;;;;;5066467;28;20137;-75
2023/04/20 03:22:24;;;;;;;1999.90;999.90;;;5.50;99.90;;;;;;5052807;28;20131;-75
2023/04/20 03:24:51;;;;;;;1999.90;999.90;;;5.50;99.90;;;;;;5073317;28;20060;-75
2023/04/20 03:27:16;;;;;;;1999.90;999.90;;;5.50;99.90;;;;;;5066380;28;20024;-75
2023/04/20 03:29:42;;;;;;;1999.90;999.90;;;5.50;99.90;;;;;;5064495;28;20032;-74
2023/04/20 03:32:07;;;;;;;1999.90;999.90;;;5.40;99.90;;;;;;5064690;28;20475;-74
2023/04/20 03:34:33;;;;;;;1999.90;999.90;;;5.30;99.90;;;;;;5064544;28;20035;-74
2023/04/20 03:36:59;;;;;;;1999.90;999.90;;;5.40;99.90;;;;;;5076508;28;20028;-75
2023/04/20 03:39:24;;;;;;;1999.90;999.90;;;5.40;99.90;;;;;;5053467;28;20127;-75
2023/04/20 03:41:50;;;;;;;1999.90;999.90;;;5.50;99.90;;;;;;5073560;28;20028;-74
2023/04/20 03:44:16;;;;;;;1999.90;999.90;;;5.50;99.90;;;;;;5067735;28;20082;-75
2023/04/20 03:46:43;;;;;;;1999.90;999.90;;;5.50;99.90;;;;;;5067164;28;20048;-75
2023/04/20 03:49:08;;;;;;;1999.90;999.90;;;5.50;99.90;;;;;;5071528;28;20035;-76
2023/04/20 03:51:34;;;;;;;1999.90;999.90;;;5.50;99.90;;;;;;5071887;28;20379;-76
2023/04/20 03:54:00;;;;;;;1999.90;999.90;;;5.40;99.90;;;;;;5072407;28;20029;-76
2023/04/20 03:56:26;;;;;;;1999.90;999.90;;;5.50;99.90;;;;;;5049065;28;20036;-76
2023/04/20 03:58:51;;;;;;;1999.90;999.90;;;5.40;99.90;;;;;;5048393;28;20116;-76
2023/04/20 04:01:17;;;;;;;1999.90;999.90;;;5.30;99.90;;;;;;5063421;28;20106;-76
2023/04/20 04:03:43;;;;;;;1999.90;999.90;;;5.30;99.90;;;;;;5041089;28;20032;-75
2023/04/20 04:06:09;;;;;;;1999.90;999.90;;;5.40;99.90;;;;;;5070063;28;20051;-74
2023/04/20 04:08:35;;;;;;;1999.90;999.90;;;5.40;99.90;;;;;;5067102;28;20036;-74
2023/04/20 04:11:00;;;;;;;1999.90;999.90;;;5.40;99.90;;;;;;5065477;28;20203;-76
2023/04/20 04:13:26;;;;;;;1999.90;999.90;;;5.40;99.90;;;;;;5048422;28;20056;-75
2023/04/20 04:15:52;;;;;;;1999.90;999.90;;;5.30;99.90;;;;;;5049270;28;20055;-75
2023/04/20 04:18:19;;;;;;;1999.90;999.90;;;5.30;99.90;;;;;;5062671;28;20554;-75
2023/04/20 04:20:45;;;;;;;1999.90;999.90;;;5.30;99.90;;;;;;5069015;28;20037;-74
2023/04/20 04:23:11;;;;;;;1999.90;999.90;;;5.30;99.90;;;;;;5027002;28;20596;-74
2023/04/20 04:25:39;;;;;;;1999.90;999.90;;;5.30;99.90;;;;;;5022968;28;20061;-76
2023/04/20 04:28:05;;;;;;;1999.90;999.90;;;5.30;99.90;;;;;;5026847;28;20100;-76
2023/04/20 04:30:30;;;;;;;1999.90;999.90;;;5.40;99.90;;;;;;5024729;28;21197;-75
2023/04/20 04:32:58;;;;;;;1999.90;999.90;;;5.40;99.90;;;;;;5032588;28;20021;-75
2023/04/20 04:35:24;;;;;;;1999.90;999.90;;;5.30;99.90;;;;;;5030999;28;20025;-75
2023/04/20 04:37:51;;;;;;;1999.90;999.90;;;5.40;99.90;;;;;;5027224;28;20109;-75
2023/04/20 04:40:17;;;;;;;1999.90;999.90;;;5.50;99.90;;;;;;5024752;28;20038;-74
2023/04/20 04:42:44;;;;;;;1999.90;999.90;;;5.40;99.90;;;;;;5024818;28;20092;-77
2023/04/20 04:45:10;;;;;;;1999.90;999.90;;;5.40;99.90;;;;;;5028563;28;20113;-75
2023/04/20 04:47:36;;;;;;;1999.90;999.90;;;5.40;99.90;;;;;;5024083;28;20129;-75
2023/04/20 04:50:05;;;;;;;1999.90;999.90;;;5.50;99.90;;;;;;5021225;28;20017;-75
2023/04/20 04:52:32;;;;;;;1999.90;999.90;;;5.50;99.90;;;;;;5029228;28;20037;-75
2023/04/20 04:54:58;;;;;;;1999.90;999.90;;;5.40;99.90;;;;;;5031842;28;20385;-76
2023/04/20 04:57:25;;;;;;;1999.90;999.90;;;5.40;99.90;;;;;;5027903;28;20030;-76
2023/04/20 04:59:51;;;;;;;1999.90;999.90;;;5.40;99.90;;;;;;5025761;28;20394;-75
2023/04/20 05:02:16;;;;;;;1999.90;999.90;;;5.30;99.90;;;;;;5023630;28;20025;-75
2023/04/20 05:04:42;;;;;;;1999.90;999.90;;;5.30;99.90;;;;;;5027527;28;20057;-74
2023/04/20 05:07:10;;;;;;;1999.90;999.90;;;5.20;99.90;;;;;;5018791;28;20483;-76
2023/04/20 05:09:36;;;;;;;1999.90;999.90;;;5.20;99.90;;;;;;5021391;28;20536;-76
2023/04/20 05:12:02;;;;;;;1999.90;999.90;;;5.40;99.90;;;;;;5019252;28;20104;-75
2023/04/20 05:14:30;;;;;;;1999.90;999.90;;;5.40;99.90;;;;;;5021542;28;20537;-75
2023/04/20 05:16:57;;;;;;;1999.90;999.90;;;5.40;99.90;;;;;;5019164;28;20041;-77
2023/04/20 05:19:23;;;;;;;1999.90;999.90;;;5.50;99.90;;;;;;5022647;28;20505;-75
2023/04/20 05:21:48;;;;;;;1999.90;999.90;;;5.40;99.90;;;;;;5027690;28;20046;-76
2023/04/20 05:24:14;;;;;;;1999.90;999.90;;;5.40;99.90;;;;;;5069360;28;20395;-75
2023/04/20 05:26:40;;;;;;;1999.90;999.90;;;5.40;99.90;;;;;;5060595;28;20056;-75
2023/04/20 05:29:05;;;;;;;1999.90;999.90;;;5.40;99.90;;;;;;5069330;28;20121;-75
2023/04/20 05:31:32;;;;;;;1999.90;999.90;;;5.30;99.90;;;;;;5057006;28;20033;-78
2023/04/20 05:33:58;;;;;;;1999.90;999.90;;;5.30;99.90;;;;;;5048050;28;20055;-76
2023/04/20 05:36:24;;;;;;;1999.90;999.90;;;5.40;99.90;;;;;;5065115;28;20478;-77
2023/04/20 05:38:49;;;;;;;1999.90;999.90;;;5.40;99.90;;;;;;5066359;28;20033;-78
2023/04/20 05:41:15;;;;;;;1999.90;999.90;;;5.40;99.90;;;;;;5057793;28;20040;-79
2023/04/20 05:43:40;;;;;;;1999.90;999.90;;;5.30;99.90;;;;;;5051462;28;20032;-80
2023/04/20 05:46:06;;;;;;;1999.90;999.90;;;5.40;99.90;;;;;;5061784;28;20086;-80
2023/04/20 05:48:32;;;;;;;1999.90;999.90;;;5.30;99.90;;;;;;5067205;28;20044;-79
2023/04/20 05:50:57;;;;;;;1999.90;999.90;;;5.40;99.90;;;;;;5065079;28;20036;-80
2023/04/20 05:53:23;;;;;;;1999.90;999.90;;;5.30;99.90;;;;;;5053367;28;20020;-76
2023/04/20 05:55:48;;;;;;;1999.90;999.90;;;5.30;99.90;;;;;;5059847;28;20112;-76
2023/04/20 05:58:15;;;;;;;1999.90;999.90;;;5.20;99.90;;;;;;5049709;28;20044;-75
2023/04/20 06:00:41;;;;;;;1999.90;999.90;;;5.30;99.90;;;;;;5041625;28;20055;-78
2023/04/20 06:03:07;;;;;;;1999.90;999.90;;;5.30;99.90;;;;;;5063190;28;20029;-78
2023/04/20 06:05:33;;;;;;;1999.90;999.90;;;5.30;99.90;;;;;;5057082;28;20737;-79
2023/04/20 06:07:58;;;;;;;1999.90;999.90;;;5.30;99.90;;;;;;5058048;28;20124;-78
2023/04/20 06:10:24;;;;;;;1999.90;999.90;;;5.30;99.90;;;;;;5043929;28;20028;-78
2023/04/20 06:12:50;;;;;;;1999.90;999.90;;;5.30;99.90;;;;;;5029739;28;20091;-81
2023/04/20 06:15:16;;;;;;;1999.90;999.90;;;5.10;99.90;;;;;;5049656;28;20028;-80
2023/04/20 06:17:41;;;;;;;1999.90;999.90;;;5.20;99.90;;;;;;5067058;28;20088;-77
2023/04/20 06:20:09;;;;;;;1999.90;999.90;;;5.00;99.90;;;;;;5069720;28;20086;-79
2023/04/20 06:22:36;;;;;;;1999.90;999.90;;;5.00;99.90;;;;;;5061643;28;20048;-78
2023/04/20 06:25:02;;;;;;;1999.90;999.90;;;4.80;99.90;;;;;;5070839;28;20089;-77
2023/04/20 06:27:27;;;;;;;1999.90;999.90;;;4.90;99.90;;;;;;5064935;28;20502;-79
2023/04/20 06:29:53;;;;;;;1999.90;999.90;;;4.80;99.90;;;;;;5072184;28;20039;-78
2023/04/20 06:32:19;;;;;;;1999.90;999.90;;;4.90;99.90;;;;;;5053106;28;20037;-79
2023/04/20 06:34:46;;;;;;;1999.90;999.90;;;4.80;99.90;;;;;;5071712;28;20538;-81
2023/04/20 06:37:12;;;;;;;1999.90;999.90;;;4.80;99.90;;;;;;5069967;28;20036;-78
2023/04/20 06:39:38;;;;;;;1999.90;999.90;;;4.80;99.90;;;;;;5047946;28;20029;-80
2023/04/20 06:42:04;;;;;;;1999.90;999.90;;;4.90;99.90;;;;;;5070497;28;20041;-79
2023/04/20 06:44:29;;;;;;;1999.90;999.90;;;4.90;99.90;;;;;;5071075;28;20055;-78
2023/04/20 06:46:55;;;;;;;1999.90;999.90;;;4.80;99.90;;;;;;5053231;28;20067;-79
2023/04/20 06:49:21;;;;;;;1999.90;999.90;;;4.90;99.90;;;;;;5073429;28;20299;-80
2023/04/20 06:51:46;;;;;;;1999.90;999.90;;;4.90;99.90;;;;;;5070813;28;20039;-79
2023/04/20 06:54:12;;;;;;;1999.90;999.90;;;4.80;99.90;;;;;;5073768;28;20036;-77
2023/04/20 06:56:37;;;;;;;1999.90;999.90;;;4.80;99.90;;;;;;5046102;28;20040;-78
2023/04/20 06:59:03;;;;;;;1999.90;999.90;;;4.90;99.90;;;;;;5046077;28;20028;-80
2023/04/20 07:01:29;;;;;;;1999.90;999.90;;;4.90;99.90;;;;;;5060061;28;20032;-79
2023/04/20 07:03:55;;;;;;;1999.90;999.90;;;4.80;99.90;;;;;;5053131;28;20052;-79
2023/04/20 07:06:20;;;;;;;1999.90;999.90;;;4.70;99.90;;;;;;5062781;28;20106;-77
2023/04/20 07:08:46;;;;;;;1999.90;999.90;;;4.70;99.90;;;;;;5046276;28;20068;-77
2023/04/20 07:11:12;;;;;;;1999.90;999.90;;;4.70;99.90;;;;;;5040854;28;20021;-78
2023/04/20 07:13:37;;;;;;;1999.90;999.90;;;4.90;99.90;;;;;;5029225;28;20040;-79
2023/04/20 07:16:03;;;;;;;1999.90;999.90;;;5.10;99.90;;;;;;5041659;28;20151;-78
2023/04/20 07:18:30;;;;;;;1999.90;999.90;;;5.30;99.90;;;;;;5043777;28;20039;-80
2023/04/20 07:20:55;;;;;;;1999.90;999.90;;;5.30;99.90;;;;;;5065710;28;20062;-80
2023/04/20 07:23:21;;;;;;;1999.90;999.90;;;5.30;99.90;;;;;;5062913;28;20492;-78
2023/04/20 07:25:46;;;;;;;1999.90;999.90;;;5.40;99.90;;;;;;5056969;28;20039;-79
2023/04/20 07:28:12;;;;;;;1999.90;999.90;;;5.40;99.90;;;;;;5054780;28;20572;-76
2023/04/20 07:30:38;;;;;;;1999.90;999.90;;;5.50;99.90;;;;;;5043331;28;20468;-78
2023/04/20 07:33:03;;;;;;;1999.90;999.90;;;5.70;99.90;;;;;;5061528;28;20031;-78
2023/04/20 07:35:29;;;;;;;1999.90;999.90;;;5.70;99.90;;;;;;5040421;28;20032;-78
2023/04/20 07:37:55;;;;;;;1999.90;999.90;;;5.70;99.90;;;;;;5047001;28;20039;-79
2023/04/20 07:40:21;;;;;;;1999.90;999.90;;;5.70;99.90;;;;;;5037761;28;20459;-79
2023/04/20 07:42:46;;;;;;;1999.90;999.90;;;5.80;99.90;;;;;;5042270;28;20032;-80
2023/04/20 07:45:12;;;;;;;1999.90;999.90;;;5.80;99.90;;;;;;5044616;28;20445;-77
2023/04/20 07:47:38;;;;;;;1999.90;999.90;;;5.80;99.90;;;;;;5045294;28;20116;-80
2023/04/20 07:50:05;;;;;;;1999.90;999.90;;;5.80;99.90;;;;;;5057196;28;20590;-77
2023/04/20 07:52:31;;;;;;;1999.90;999.90;;;5.90;99.90;;;;;;5027079;28;20032;-77
2023/04/20 07:54:58;;;;;;;1999.90;999.90;;;5.80;99.90;;;;;;5068080;28;20079;-80
2023/04/20 07:57:24;;;;;;;1999.90;999.90;;;5.60;99.90;;;;;;5054506;28;20036;-82
2023/04/20 07:59:50;;;;;;;1999.90;999.90;;;5.70;99.90;;;;;;5058737;28;20025;-79
2023/04/20 08:02:16;;;;;;;1999.90;999.90;;;5.80;99.90;;;;;;5053954;28;20052;-79
2023/04/20 08:04:43;;;;;;;1999.90;999.90;;;5.90;99.90;;;;;;5058850;28;20029;-78
2023/04/20 08:07:09;;;;;;;1999.90;999.90;;;5.70;99.90;;;;;;5066316;28;20067;-80
2023/04/20 08:09:35;;;;;;;1999.90;999.90;;;5.70;99.90;;;;;;5046169;28;20820;-78
2023/04/20 08:12:01;;;;;;;1999.90;999.90;;;5.70;99.90;;;;;;5056728;28;20310;-80
2023/04/20 08:14:27;;;;;;;1999.90;999.90;;;5.70;99.90;;;;;;5066627;28;20105;-78
2023/04/20 08:16:52;;;;;;;1999.90;999.90;;;5.60;99.90;;;;;;5065831;28;20032;-78
2023/04/20 08:19:18;;;;;;;1999.90;999.90;;;5.60;99.90;;;;;;5033830;28;20498;-79
2023/04/20 08:21:44;;;;;;;1999.90;999.90;;;5.70;99.90;;;;;;5047475;28;20037;-79
2023/04/20 08:24:10;;;;;;;1999.90;999.90;;;5.70;99.90;;;;;;5057313;28;20037;-80
2023/04/20 08:26:36;;;;;;;1999.90;999.90;;;5.70;99.90;;;;;;5068624;28;20038;-79
2023/04/20 08:29:02;;;;;;;1999.90;999.90;;;5.70;99.90;;;;;;5077114;28;20047;-78
2023/04/20 08:31:28;;;;;;;1999.90;999.90;;;5.70;99.90;;;;;;5075018;28;20457;-77
2023/04/20 08:33:54;;;;;;;1999.90;999.90;;;5.80;99.90;;;;;;5071904;28;20107;-77
2023/04/20 08:36:19;;;;;;;1999.90;999.90;;;5.80;99.90;;;;;;5060603;28;20033;-80
2023/04/20 08:38:50;;;;;;;1999.90;999.90;;;5.90;99.90;;;;;;5070841;28;20025;-78
2023/04/20 08:41:15;;;;;;;1999.90;999.90;;;6.10;99.90;;;;;;5072496;28;20526;-79
2023/04/20 08:43:41;;;;;;;1999.90;999.90;;;6.10;99.90;;;;;;5056362;28;20045;-81
2023/04/20 08:46:07;;;;;;;1999.90;999.90;;;6.10;99.90;;;;;;5068853;28;20593;-79
2023/04/20 08:48:39;;;;;;;1999.90;999.90;;;6.00;99.90;;;;;;5054291;28;20040;-80
2023/04/20 08:51:05;;;;;;;1999.90;999.90;;;6.00;99.90;;;;;;5060401;28;20052;-78
2023/04/20 08:53:31;;;;;;;1999.90;999.90;;;6.10;99.90;;;;;;5057063;28;21658;-81
2023/04/20 08:55:57;;;;;;;1999.90;999.90;;;6.10;99.90;;;;;;5073455;28;20028;-79
2023/04/20 08:58:31;;;;;;;1999.90;999.90;;;6.20;99.90;;;;;;5051600;28;20111;-78
2023/04/20 09:00:59;;;;;;;1999.90;999.90;;;6.20;99.90;;;;;;5063467;28;20033;-80
2023/04/20 09:03:40;;;;;;;1999.90;999.90;;;6.10;99.90;;;;;;5053108;28;20024;-80
2023/04/20 09:06:14;;;;;;;1999.90;999.90;;;6.20;99.90;;;;;;5060322;28;20086;-77
2023/04/20 09:08:40;;;;;;;1999.90;999.90;;;6.20;99.90;;;;;;5064033;28;20063;-77
2023/04/20 09:11:06;;;;;;;1999.90;999.90;;;6.10;99.90;;;;;;5070970;28;20037;-80
2023/04/20 09:13:32;;;;;;;1999.90;999.90;;;6.00;99.90;;;;;;5068427;28;20060;-80
2023/04/20 09:16:09;;;;;;;1999.90;999.90;;;6.00;99.90;;;;;;5071632;28;20390;-78
2023/04/20 09:18:36;;;;;;;1999.90;999.90;;;6.00;99.90;;;;;;5055030;28;20647;-79
2023/04/20 09:21:09;;;;;;;1999.90;999.90;;;6.00;99.90;;;;;;5071659;28;20035;-78
2023/04/20 09:23:35;;;;;;;1999.90;999.90;;;5.90;99.90;;;;;;5051861;28;20045;-78
2023/04/20 09:26:00;;;;;;;1999.90;999.90;;;5.90;99.90;;;;;;5075050;28;20036;-80
2023/04/20 09:28:37;;;;;;;1999.90;999.90;;;6.00;99.90;;;;;;5067726;28;20028;-82
2023/04/20 09:31:04;;;;;;;1999.90;999.90;;;6.10;99.90;;;;;;5056480;28;20031;-78
2023/04/20 09:33:31;;;;;;;1999.90;999.90;;;6.20;99.90;;;;;;5056587;28;20028;-81
2023/04/20 09:36:04;;;;;;;1999.90;999.90;;;6.20;99.90;;;;;;5054185;28;20024;-80
2023/04/20 09:38:29;;;;;;;1999.90;999.90;;;6.00;99.90;;;;;;5066714;28;20037;-77
2023/04/20 09:41:00;;;;;;;1999.90;999.90;;;5.80;99.90;;;;;;5068095;28;20101;-78
2023/04/20 09:43:26;;;;;;;;;;;5.80;99.90;;;;;;5052480;28;20032;-80
2023/04/20 09:45:53;;;;;;;1999.90;999.90;;;5.80;99.90;;;;;;5049802;28;19963;-78
2023/04/20 09:48:20;;;;;;;1999.90;999.90;;;5.90;99.90;;;;;;5053015;28;20490;-78
2023/04/20 09:50:46;;;;;;;1999.90;999.90;;;6.00;99.90;;;;;;5073153;28;20394;-78
2023/04/20 09:53:15;;;;;;;1999.90;999.90;;;6.00;99.90;;;;;;5074512;28;20487;-80
2023/04/20 09:55:49;;;;;;;1999.90;999.90;;;6.10;99.90;;;;;;5050606;28;20033;-81
2023/04/20 09:58:18;;;;;;;1999.90;999.90;;;5.90;99.90;;;;;;5057035;28;20032;-80
2023/04/20 10:00:44;;;;;;;1999.90;999.90;;;5.90;99.90;;;;;;5068556;28;20054;-79
2023/04/20 10:03:11;;;;;;;1999.90;999.90;;;5.90;99.90;;;;;;5057590;28;20949;-78
2023/04/20 10:05:38;;;;;;;1999.90;999.90;;;6.10;99.90;;;;;;5071722;28;20074;-77
2023/04/20 10:08:05;;;;;;;1999.90;999.90;;;6.30;99.90;;;;;;5072785;28;20025;-78
2023/04/20 10:10:41;;;;;;;1999.90;999.90;;;6.30;99.90;;;;;;5052629;28;20040;-79
2023/04/20 10:13:07;;;;;;;1999.90;999.90;;;6.30;99.90;;;;;;5068225;28;20107;-77
2023/04/20 10:15:38;;;;;;;1999.90;999.90;;;6.40;99.90;;;;;;5047164;28;20116;-77
2023/04/20 10:18:23;;;;;;;1999.90;999.90;;;6.40;99.90;;;;;;5053896;28;20036;-81
2023/04/20 10:20:50;;;;;;;1999.90;999.90;;;6.40;99.90;;;;;;5066417;28;20554;-79
2023/04/20 10:23:17;;;;;;;1999.90;999.90;;;6.40;99.90;;;;;;5069373;28;20055;-79
2023/04/20 10:25:57;;;;;;;1999.90;999.90;;;6.40;99.90;;;;;;5069768;28;20029;-79
2023/04/20 10:28:23;;;;;;;1999.90;999.90;;;6.40;99.90;;;;;;5067202;28;20032;-82
2023/04/20 10:30:52;;;;;;;1999.90;999.90;;;6.70;99.90;;;;;;5058283;28;20041;-79
2023/04/20 10:33:18;;;;;;;1999.90;999.90;;;6.80;99.90;;;;;;5048666;28;20036;-83
2023/04/20 10:35:46;;;;;;;1999.90;999.90;;;7.00;99.90;;;;;;5069702;28;20078;-82
2023/04/20 10:38:12;;;;;;;1999.90;999.90;;;7.00;99.90;;;;;;5073780;28;20119;-82
2023/04/20 10:40:37;;;;;;;1999.90;999.90;;;6.80;99.90;;;;;;5052298;28;20116;-85
2023/04/20 10:43:03;;;;;;;1999.90;999.90;;;6.80;99.90;;;;;;5068146;28;20040;-81
2023/04/20 10:45:37;;;;;;;1999.90;999.90;;;7.00;99.90;;;;;;5073361;28;20547;-82
2023/04/20 10:48:08;;;;;;;1999.90;999.90;;;7.00;99.90;;;;;;5066157;28;20037;-82
2023/04/20 10:50:35;;;;;;;1999.90;999.90;;;7.00;99.90;;;;;;5068571;28;20056;-81
2023/04/20 10:53:01;;;;;;;1999.90;999.90;;;6.90;99.90;;;;;;5065171;28;20044;-81
2023/04/20 10:55:27;;;;;;;1999.90;999.90;;;7.00;99.90;;;;;;5048546;28;20082;-81
2023/04/20 10:57:52;;;;;;;1999.90;999.90;;;6.80;99.90;;;;;;5055273;28;20040;-82
2023/04/20 11:00:26;;;;;;;1999.90;999.90;;;6.70;99.90;;;;;;5053149;28;20036;-82
2023/04/20 11:02:55;;;;;;;1999.90;999.90;;;6.70;99.90;;;;;;5055516;28;20031;-80
2023/04/20 11:05:22;;;;;;;1999.90;999.90;;;6.80;99.90;;;;;;5069728;28;20032;-81
2023/04/20 11:07:59;;;;;;;1999.90;999.90;;;6.90;99.90;;;;;;5069927;28;20482;-80
2023/04/20 11:10:39;;;;;;;1999.90;999.90;;;7.00;99.90;;;;;;5067101;28;20119;-83
2023/04/20 11:13:06;;;;;;;1999.90;999.90;;;6.80;99.90;;;;;;5068592;28;20024;-82
2023/04/20 11:15:35;;;;;;;1999.90;999.90;;;6.90;99.90;;;;;;5050716;28;20598;-80
2023/04/20 11:18:08;;;;;;;1999.90;999.90;;;6.90;99.90;;;;;;5067767;28;20494;-80
2023/04/20 11:20:34;;;;;;;1999.90;999.90;;;7.00;99.90;;;;;;5037389;28;20040;-82
2023/04/20 11:22:59;;;;;;;1999.90;999.90;;;7.00;99.90;;;;;;5052158;28;20051;-82
2023/04/20 11:25:26;;;;;;;1999.90;999.90;;;7.00;99.90;;;;;;5051527;28;20055;-80
2023/04/20 11:27:52;;;;;;;1999.90;999.90;;;6.80;99.90;;;;;;5049766;28;20032;-81
2023/04/20 11:30:18;;;;;;;1999.90;999.90;;;6.90;99.90;;;;;;5071665;28;20099;-79
2023/04/20 11:32:53;;;;;;;1999.90;999.90;;;6.90;99.90;;;;;;5050639;28;20025;-81
2023/04/20 11:35:18;;;;;;;1999.90;999.90;;;7.10;99.90;;;;;;5051541;28;20029;-79
2023/04/20 11:37:52;;;;;;;1999.90;999.90;;;7.30;99.90;;;;;;5070532;28;20158;-81
2023/04/20 11:40:18;;;;;;;1999.90;999.90;;;7.40;99.90;;;;;;5051884;28;20033;-79
2023/04/20 11:42:45;;;;;;;1999.90;999.90;;;7.30;99.90;;;;;;5070382;28;20406;-82
2023/04/20 11:45:11;;;;;;;1999.90;999.90;;;7.20;99.90;;;;;;5068103;28;20028;-82
2023/04/20 11:47:39;;;;;;;1999.90;999.90;;;7.40;99.90;;;;;;5051844;28;20032;-81
2023/04/20 11:50:06;;;;;;;1999.90;999.90;;;7.70;99.90;;;;;;5040544;28;20031;-81
2023/04/20 11:52:32;;;;;;;1999.90;999.90;;;7.90;99.90;;;;;;5053038;28;20033;-82
2023/04/20 11:54:57;;;;;;;1999.90;999.90;;;7.90;99.90;;;;;;5069868;28;20737;-80
2023/04/20 11:57:24;;;;;;;1999.90;999.90;;;8.20;99.90;;;;;;5046379;28;20029;-80
2023/04/20 11:59:50;;;;;;;1999.90;999.90;;;8.50;99.90;;;;;;5059404;28;20021;-81
2023/04/20 12:02:16;;;;;;;1999.90;999.90;;;8.40;99.90;;;;;;5071207;28;20067;-79
2023/04/20 12:04:41;;;;;;;1999.90;999.90;;;8.30;99.90;;;;;;5074629;28;20040;-84